Mineral Ridge, Ohio
Current Conditions -  °F | °C
As of 6:51 AM on Monday 22 Dec 2014 (Local Time) from KYNG Reporting Station
Overcast Overcast  
Wind Chill: 14°   Ceiling: 3300
Heat Index: 24°   Visibility: 9mi
Dew Point: 21°   Wind: 9mph
Humidity: 88%   Direction: 100°E
Pressure: 30.11"   Gusts: NA
Location:  41.14°N, 80.77°W
Report Text: KYNG 221151Z 10008KT 9SM BKN033 OVC230 M04/M06 A3011 RMK AO2 SLP210 T10441061 11039 21050 56004
Loading
Personal Weather Stations






























Interactive Weather Map New forecast layout! Learn more

10-Day Weather Forecast

Advertisements
Track Severe Weather on mobile